Time;durP1;ratioP1;P1;durP2;ratioP2;P2;SDS_P1;SDS_P2;PMS_P1;PMS_P2;Temp;Humidity;BMP_temperature;BMP_pressure;BME280_temperature;BME280_humidity;BME280_pressure;Samples;Min_cycle;Max_cycle;Signal;HPM_P1;HPM_P2
2023/07/07 00:00:29;;;;;;;8.82;5.47;;;21.10;99.90;;;;;;5030236;28;20044;-77
2023/07/07 00:03:34;;;;;;;9.05;5.90;;;21.00;99.90;;;;;;5017073;28;20036;-75
2023/07/07 00:06:38;;;;;;;12.20;6.22;;;21.00;99.90;;;;;;5030170;28;20056;-77
2023/07/07 00:09:42;;;;;;;12.88;5.90;;;21.00;99.90;;;;;;5030016;28;20048;-76
2023/07/07 00:12:46;;;;;;;7.30;5.22;;;21.00;99.90;;;;;;5029442;28;20515;-76
2023/07/07 00:15:57;;;;;;;10.32;5.95;;;21.10;99.90;;;;;;5030060;28;20048;-76
2023/07/07 00:19:02;;;;;;;6.85;5.43;;;21.10;99.90;;;;;;5029964;28;20048;-76
2023/07/07 00:22:06;;;;;;;14.48;6.20;;;21.00;99.90;;;;;;5029730;28;20069;-76
2023/07/07 00:25:10;;;;;;;19.05;6.93;;;21.00;99.90;;;;;;5029916;28;20052;-77
2023/07/07 00:28:14;;;;;;;9.45;5.97;;;21.00;99.90;;;;;;5029836;28;20048;-76
2023/07/07 00:31:22;;;;;;;7.38;5.65;;;20.90;99.90;;;;;;5029987;28;20041;-77
2023/07/07 00:34:28;;;;;;;10.38;5.43;;;20.80;99.90;;;;;;5029961;28;20503;-77
2023/07/07 00:37:34;;;;;;;11.20;6.07;;;20.70;99.90;;;;;;5029605;28;20048;-75
2023/07/07 00:40:39;;;;;;;10.07;6.53;;;20.50;99.90;;;;;;5030160;28;20049;-76
2023/07/07 00:44:03;;;;;;;8.75;5.72;;;20.20;99.90;;;;;;5030151;28;20168;-76
2023/07/07 00:47:07;;;;;;;15.80;6.47;;;20.10;99.90;;;;;;5033085;28;20068;-76
2023/07/07 00:50:14;;;;;;;8.82;5.57;;;20.10;99.90;;;;;;5033265;28;20048;-75
2023/07/07 00:53:19;;;;;;;10.70;6.13;;;20.00;99.90;;;;;;5032840;28;20055;-75
2023/07/07 00:56:32;;;;;;;11.98;5.97;;;20.00;99.90;;;;;;5033056;28;20064;-77
2023/07/07 00:59:40;;;;;;;9.10;6.28;;;20.10;99.90;;;;;;5032861;28;20048;-76
2023/07/07 01:02:53;;;;;;;10.30;5.85;;;20.00;99.90;;;;;;5032843;28;20044;-77
2023/07/07 01:06:00;;;;;;;12.35;6.10;;;20.00;99.90;;;;;;5032654;28;20044;-77
2023/07/07 01:09:08;;;;;;;13.13;5.80;;;19.90;99.90;;;;;;5020474;28;20056;-76
2023/07/07 01:12:15;;;;;;;11.07;6.55;;;20.00;99.90;;;;;;5020222;28;20040;-76
2023/07/07 01:15:22;;;;;;;12.52;6.15;;;20.00;99.90;;;;;;5032790;28;20049;-76
2023/07/07 01:18:55;;;;;;;9.73;6.75;;;20.00;99.90;;;;;;5032889;28;20045;-76
2023/07/07 01:22:20;;;;;;;9.45;5.93;;;20.00;99.90;;;;;;5032683;28;20040;-76
2023/07/07 01:25:42;;;;;;;12.70;6.47;;;20.00;99.90;;;;;;4996600;28;20048;-76
2023/07/07 01:29:06;;;;;;;12.02;6.18;;;20.00;99.90;;;;;;5032396;28;20025;-77
2023/07/07 01:32:17;;;;;;;14.73;6.57;;;20.00;99.90;;;;;;5032697;28;20056;-77
2023/07/07 01:35:22;;;;;;;10.73;6.00;;;19.70;99.90;;;;;;5032738;28;20135;-76
2023/07/07 01:38:34;;;;;;;10.38;6.78;;;19.60;99.90;;;;;;5032643;28;20109;-76
2023/07/07 01:41:57;;;;;;;14.25;6.40;;;19.40;99.90;;;;;;5031208;28;20498;-77
2023/07/07 01:45:06;;;;;;;12.63;6.63;;;19.40;99.90;;;;;;5032189;28;20036;-77
2023/07/07 01:48:34;;;;;;;11.40;6.57;;;19.30;99.90;;;;;;5032323;28;20048;-77
2023/07/07 01:51:48;;;;;;;12.23;6.50;;;19.10;99.90;;;;;;5031772;28;20052;-77
2023/07/07 01:55:00;;;;;;;15.95;7.10;;;19.00;99.90;;;;;;5031962;28;20048;-76
2023/07/07 01:58:07;;;;;;;14.00;7.13;;;19.10;99.90;;;;;;5032049;28;20056;-76
2023/07/07 02:01:12;;;;;;;11.52;6.60;;;19.00;99.90;;;;;;5020129;28;20037;-76
2023/07/07 02:04:16;;;;;;;10.50;6.93;;;19.10;99.90;;;;;;5032208;28;20040;-76
2023/07/07 02:07:20;;;;;;;10.70;6.85;;;19.10;99.90;;;;;;5019743;28;20067;-77
2023/07/07 02:10:24;;;;;;;10.35;7.45;;;19.20;99.90;;;;;;5031715;28;20048;-76
2023/07/07 02:13:28;;;;;;;12.20;7.68;;;19.30;99.90;;;;;;5019138;28;20515;-76
2023/07/07 02:16:32;;;;;;;12.77;7.60;;;19.30;99.90;;;;;;5031489;28;20447;-76
2023/07/07 02:19:36;;;;;;;11.38;6.63;;;19.40;99.90;;;;;;5019374;28;20048;-76
2023/07/07 02:22:40;;;;;;;10.75;6.30;;;19.50;99.90;;;;;;5031393;28;20048;-77
2023/07/07 02:25:44;;;;;;;10.02;7.05;;;19.50;99.90;;;;;;5031606;28;20052;-76
2023/07/07 02:28:48;;;;;;;12.38;6.63;;;19.60;99.90;;;;;;5031702;28;20048;-76
2023/07/07 02:31:52;;;;;;;13.30;7.65;;;19.70;99.90;;;;;;5031107;28;20048;-76
2023/07/07 02:35:00;;;;;;;10.30;7.75;;;19.80;99.90;;;;;;5031531;28;20416;-76
2023/07/07 02:38:04;;;;;;;16.58;8.43;;;19.70;99.90;;;;;;5019188;28;20056;-77
2023/07/07 02:41:09;;;;;;;13.68;8.80;;;19.70;99.90;;;;;;5017932;28;20056;-76
2023/07/07 02:44:15;;;;;;;13.85;7.50;;;19.60;99.90;;;;;;5031245;28;20044;-76
2023/07/07 02:47:19;;;;;;;12.60;7.85;;;19.70;99.90;;;;;;5031224;28;20048;-76
2023/07/07 02:50:22;;;;;;;9.13;7.43;;;19.70;99.90;;;;;;5018817;28;20056;-76
2023/07/07 02:53:30;;;;;;;12.63;8.48;;;19.60;99.90;;;;;;5030503;28;20408;-76
2023/07/07 02:56:34;;;;;;;13.82;8.00;;;19.60;99.90;;;;;;5018546;28;20040;-77
2023/07/07 02:59:38;;;;;;;10.25;7.68;;;19.60;99.90;;;;;;5018558;28;20044;-76
2023/07/07 03:02:43;;;;;;;9.93;6.88;;;19.60;99.90;;;;;;5018268;28;20519;-77
2023/07/07 03:05:47;;;;;;;11.82;7.32;;;19.50;99.90;;;;;;5030828;28;20048;-76
2023/07/07 03:08:53;;;;;;;12.43;7.68;;;19.50;99.90;;;;;;5007378;28;20044;-76
2023/07/07 03:11:58;;;;;;;9.40;7.05;;;19.60;99.90;;;;;;5018528;28;20056;-76
2023/07/07 03:15:04;;;;;;;13.00;6.93;;;19.50;99.90;;;;;;5018775;28;20052;-77
2023/07/07 03:18:14;;;;;;;13.18;7.25;;;19.50;99.90;;;;;;5018920;28;20063;-76
2023/07/07 03:21:23;;;;;;;14.50;7.63;;;19.60;99.90;;;;;;5018119;28;20032;-76
2023/07/07 03:24:32;;;;;;;11.77;7.32;;;19.50;99.90;;;;;;5018234;28;20518;-77
2023/07/07 03:27:43;;;;;;;11.63;7.20;;;19.40;99.90;;;;;;5018592;28;20587;-76
2023/07/07 03:30:55;;;;;;;9.40;7.20;;;19.30;99.90;;;;;;5018340;28;20419;-76
2023/07/07 03:34:02;;;;;;;9.65;6.70;;;19.20;99.90;;;;;;5018102;28;20066;-76
2023/07/07 03:37:10;;;;;;;13.57;8.07;;;19.10;99.90;;;;;;5018040;28;20040;-76
2023/07/07 03:40:15;;;;;;;12.50;7.68;;;19.10;99.90;;;;;;5018190;28;20044;-76
2023/07/07 03:43:19;;;;;;;12.18;7.90;;;19.00;99.90;;;;;;5030280;28;20048;-75
2023/07/07 03:46:25;;;;;;;13.73;8.30;;;19.00;99.90;;;;;;5006997;28;20045;-76
2023/07/07 03:49:30;;;;;;;12.70;8.75;;;19.00;99.90;;;;;;5017744;28;20048;-76
2023/07/07 03:52:35;;;;;;;16.55;9.93;;;19.00;99.90;;;;;;5017708;28;20068;-76
2023/07/07 03:55:40;;;;;;;13.73;7.47;;;19.00;99.90;;;;;;5017672;28;20039;-77
2023/07/07 03:58:44;;;;;;;13.57;7.70;;;19.10;99.90;;;;;;5030155;28;20064;-76
2023/07/07 04:01:49;;;;;;;12.77;7.90;;;19.20;99.90;;;;;;5029738;28;20611;-76
2023/07/07 04:04:53;;;;;;;15.60;8.70;;;19.30;99.90;;;;;;5018062;28;20053;-76
2023/07/07 04:07:58;;;;;;;14.13;8.27;;;19.40;99.90;;;;;;5017760;28;20060;-76
2023/07/07 04:11:08;;;;;;;14.65;8.82;;;19.50;99.90;;;;;;5017860;28;20049;-75
2023/07/07 04:14:12;;;;;;;14.50;8.48;;;19.70;99.90;;;;;;5029836;28;20043;-76
2023/07/07 04:17:16;;;;;;;11.13;6.32;;;19.90;99.90;;;;;;5017329;28;20396;-76
2023/07/07 04:20:20;;;;;;;10.65;6.40;;;20.10;99.90;;;;;;5021695;28;20110;-76
2023/07/07 04:23:24;;;;;;;10.68;6.32;;;20.30;99.90;;;;;;5021378;28;20073;-76
2023/07/07 04:26:30;;;;;;;9.65;6.25;;;20.50;99.90;;;;;;5033846;28;20052;-76
2023/07/07 04:29:36;;;;;;;10.95;6.30;;;20.80;99.90;;;;;;5033926;28;20044;-76
2023/07/07 04:32:42;;;;;;;13.45;7.22;;;21.00;99.90;;;;;;5031036;28;20068;-76
2023/07/07 04:35:54;;;;;;;14.70;6.47;;;21.60;99.90;;;;;;5034465;28;20056;-76
2023/07/07 04:38:59;;;;;;;11.43;5.68;;;23.50;99.90;;;;;;5035990;28;20040;-76
2023/07/07 04:42:03;;;;;;;13.57;5.85;;;25.20;99.90;;;;;;5034141;28;20044;-75
2023/07/07 04:45:08;;;;;;;13.05;5.63;;;26.60;99.90;;;;;;5033238;28;20487;-76
2023/07/07 04:48:12;;;;;;;9.35;5.80;;;27.00;99.90;;;;;;5034078;28;20311;-76
2023/07/07 04:51:16;;;;;;;12.30;5.57;;;27.20;99.90;;;;;;5023757;28;20401;-75
2023/07/07 04:54:20;;;;;;;7.50;4.63;;;27.40;99.90;;;;;;5033721;28;20052;-76
2023/07/07 04:57:25;;;;;;;6.45;4.45;;;28.40;99.90;;;;;;5035955;28;20104;-76
2023/07/07 05:00:29;;;;;;;9.80;4.97;;;28.90;99.90;;;;;;5034173;28;20048;-75
2023/07/07 05:03:35;;;;;;;10.63;5.75;;;29.20;99.90;;;;;;5033885;28;20052;-75
2023/07/07 05:06:39;;;;;;;10.98;5.13;;;28.60;99.90;;;;;;5033764;28;20232;-78
2023/07/07 05:09:43;;;;;;;8.85;5.55;;;28.60;99.90;;;;;;5033665;28;20392;-76
2023/07/07 05:12:47;;;;;;;10.05;5.63;;;28.40;99.90;;;;;;5033076;28;20123;-76
2023/07/07 05:16:02;;;;;;;11.05;5.35;;;26.80;99.90;;;;;;5033581;28;20052;-76
2023/07/07 05:19:06;;;;;;;7.85;5.65;;;27.00;99.90;;;;;;5033583;28;20052;-76
2023/07/07 05:22:10;;;;;;;9.43;5.80;;;27.30;99.90;;;;;;5033241;28;20056;-77
2023/07/07 05:25:14;;;;;;;15.23;5.90;;;27.50;99.90;;;;;;5033901;28;20052;-76
2023/07/07 05:28:19;;;;;;;9.73;5.40;;;29.00;99.90;;;;;;5033171;28;20049;-76
2023/07/07 05:31:23;;;;;;;11.23;4.93;;;30.00;99.90;;;;;;5032527;28;20045;-77
2023/07/07 05:34:26;;;;;;;11.13;5.43;;;30.50;99.90;;;;;;5033840;28;20053;-77
2023/07/07 05:37:31;;;;;;;10.65;5.20;;;31.00;99.90;;;;;;5033496;28;20487;-77
2023/07/07 05:40:35;;;;;;;7.03;5.18;;;31.20;99.90;;;;;;5033244;28;20650;-75
2023/07/07 05:43:39;;;;;;;9.75;4.45;;;30.90;99.90;;;;;;5032658;28;20085;-76
2023/07/07 05:46:44;;;;;;;8.27;5.13;;;31.20;99.90;;;;;;5033281;28;20056;-76
2023/07/07 05:49:52;;;;;;;12.55;5.00;;;31.80;99.90;;;;;;5033180;28;20048;-76
2023/07/07 05:52:56;;;;;;;8.00;4.82;;;32.20;99.90;;;;;;5033699;28;20056;-76
2023/07/07 05:56:03;;;;;;;10.90;4.40;;;32.80;99.90;;;;;;5033337;28;20479;-76
2023/07/07 05:59:08;;;;;;;11.85;5.20;;;33.30;99.90;;;;;;5033214;28;20044;-75
2023/07/07 06:02:12;;;;;;;10.48;4.32;;;33.50;99.90;;;;;;5032603;28;20630;-75
2023/07/07 06:05:16;;;;;;;7.80;5.22;;;33.20;99.90;;;;;;5035582;28;20052;-76
2023/07/07 06:08:47;;;;;;;8.32;5.15;;;31.00;99.90;;;;;;5034009;28;20056;-76
2023/07/07 06:11:51;;;;;;;9.52;4.57;;;28.20;99.90;;;;;;5020112;28;20033;-75
2023/07/07 06:14:55;;;;;;;7.97;4.65;;;28.00;99.90;;;;;;5033386;28;20040;-77
2023/07/07 06:17:59;;;;;;;6.65;4.63;;;28.10;99.90;;;;;;5033509;28;20052;-76
2023/07/07 06:21:03;;;;;;;6.35;4.97;;;28.10;99.90;;;;;;5032090;28;20053;-76
2023/07/07 06:24:07;;;;;;;6.95;4.53;;;26.20;99.90;;;;;;5024503;28;20048;-75
2023/07/07 06:27:11;;;;;;;7.65;4.85;;;27.10;99.90;;;;;;5020135;28;20056;-75
2023/07/07 06:30:15;;;;;;;7.72;4.50;;;28.30;99.90;;;;;;5031534;28;20052;-75
2023/07/07 06:33:20;;;;;;;7.47;4.22;;;29.60;99.90;;;;;;5027379;28;20044;-75
2023/07/07 06:36:24;;;;;;;6.47;3.80;;;30.50;99.90;;;;;;5025044;28;20045;-77
2023/07/07 06:39:28;;;;;;;6.25;4.72;;;31.10;99.90;;;;;;5032534;28;20048;-76
2023/07/07 06:42:32;;;;;;;8.60;4.18;;;31.50;99.90;;;;;;5030786;28;20120;-75
2023/07/07 06:45:48;;;;;;;5.82;4.15;;;32.10;99.90;;;;;;5015957;28;20380;-78
2023/07/07 06:48:52;;;;;;;6.95;4.30;;;32.90;99.90;;;;;;5032360;28;20573;-75
2023/07/07 06:51:56;;;;;;;7.85;4.72;;;32.50;99.90;;;;;;5031814;28;20085;-76
2023/07/07 06:55:00;;;;;;;6.60;4.32;;;31.10;99.90;;;;;;5031940;28;20495;-76
2023/07/07 06:58:04;;;;;;;8.93;3.80;;;31.40;99.90;;;;;;5031119;28;20048;-76
2023/07/07 07:01:12;;;;;;;6.90;4.30;;;31.90;99.90;;;;;;5031843;28;20040;-76
2023/07/07 07:04:16;;;;;;;11.10;4.35;;;31.20;99.90;;;;;;5032511;28;20251;-76
2023/07/07 07:07:20;;;;;;;9.23;4.13;;;31.60;99.90;;;;;;5032004;28;20424;-76
2023/07/07 07:10:28;;;;;;;7.53;3.92;;;31.90;99.90;;;;;;5031937;28;20495;-76
2023/07/07 07:13:35;;;;;;;8.73;4.43;;;32.10;99.90;;;;;;5011774;28;20392;-74
2023/07/07 07:16:39;;;;;;;7.82;3.85;;;32.30;99.90;;;;;;5019797;28;20040;-76
2023/07/07 07:19:43;;;;;;;10.32;4.20;;;32.50;99.90;;;;;;5018179;28;20491;-76
2023/07/07 07:22:48;;;;;;;12.70;3.75;;;32.60;99.90;;;;;;5030878;28;20048;-77
2023/07/07 07:25:52;;;;;;;7.15;4.00;;;33.30;99.90;;;;;;5031512;28;20045;-77
2023/07/07 07:28:56;;;;;;;5.13;3.70;;;33.30;99.90;;;;;;5030342;28;20032;-74
2023/07/07 07:32:01;;;;;;;7.55;3.45;;;32.70;99.90;;;;;;5030874;28;20041;-77
2023/07/07 07:35:05;;;;;;;7.07;3.85;;;33.70;99.90;;;;;;5019455;28;20503;-77
2023/07/07 07:38:09;;;;;;;5.88;3.70;;;34.50;99.90;;;;;;5030864;28;20053;-77
2023/07/07 07:41:13;;;;;;;5.25;3.30;;;35.80;98.60;;;;;;5031281;28;20037;-76
2023/07/07 07:44:19;;;;;;;4.75;3.50;;;36.50;97.60;;;;;;5031165;28;20044;-78
2023/07/07 07:47:23;;;;;;;5.18;3.83;;;36.60;96.90;;;;;;5034394;28;20040;-76
2023/07/07 07:50:28;;;;;;;9.23;3.60;;;33.80;97.30;;;;;;5035824;28;20048;-76
2023/07/07 07:53:32;;;;;;;9.13;4.22;;;31.70;99.70;;;;;;5031947;28;20499;-77
2023/07/07 07:56:37;;;;;;;6.65;3.78;;;32.90;99.80;;;;;;5035394;28;20651;-76
2023/07/07 07:59:42;;;;;;;6.75;3.80;;;32.80;99.90;;;;;;5034800;28;20048;-75
2023/07/07 08:02:48;;;;;;;10.57;4.20;;;32.80;99.70;;;;;;5031251;28;20044;-76
2023/07/07 08:05:52;;;;;;;9.02;3.53;;;34.40;99.10;;;;;;5018620;28;20037;-76
2023/07/07 08:08:56;;;;;;;6.03;3.55;;;36.30;97.60;;;;;;5031050;28;20060;-76
2023/07/07 08:12:01;;;;;;;9.55;3.40;;;37.30;96.50;;;;;;5030711;28;20045;-76
2023/07/07 08:15:05;;;;;;;4.05;3.33;;;37.90;96.10;;;;;;5030748;28;20392;-75
2023/07/07 08:18:10;;;;;;;5.82;3.17;;;38.90;94.80;;;;;;5030382;28;20068;-77
2023/07/07 08:21:14;;;;;;;7.22;3.30;;;39.10;94.20;;;;;;5012312;28;20049;-75
2023/07/07 08:24:18;;;;;;;9.98;3.75;;;36.70;95.10;;;;;;5021863;28;20053;-75
2023/07/07 08:27:24;;;;;;;7.55;3.10;;;36.10;96.30;;;;;;5031606;28;20045;-75
2023/07/07 08:30:28;;;;;;;6.22;3.83;;;37.80;95.10;;;;;;5031317;28;20056;-75
2023/07/07 08:33:33;;;;;;;5.60;3.20;;;38.60;94.10;;;;;;5031722;28;20487;-77
2023/07/07 08:36:37;;;;;;;5.93;3.72;;;37.90;94.00;;;;;;5031869;28;20048;-78
2023/07/07 08:39:41;;;;;;;6.43;3.60;;;35.80;95.20;;;;;;5012873;28;20049;-75
2023/07/07 08:42:46;;;;;;;5.95;3.40;;;35.10;96.10;;;;;;5030423;28;20496;-74
2023/07/07 08:46:18;;;;;;;5.32;2.92;;;37.00;95.00;;;;;;5027567;28;20141;-75
2023/07/07 08:49:47;;;;;;;6.47;2.97;;;39.20;94.40;;;;;;5030900;28;20044;-74
2023/07/07 08:53:03;;;;;;;6.20;3.42;;;40.90;93.10;;;;;;5030481;28;20384;-74
2023/07/07 08:56:21;;;;;;;7.00;2.97;;;42.10;91.70;;;;;;5026404;28;20049;-76
2023/07/07 08:59:30;;;;;;;3.60;2.83;;;43.20;90.80;;;;;;5026860;28;20049;-75
2023/07/07 09:02:48;;;;;;;7.53;3.20;;;43.90;88.50;;;;;;5031118;28;20048;-76
2023/07/07 09:06:19;;;;;;;4.88;2.88;;;43.90;88.40;;;;;;5029561;28;20057;-75
2023/07/07 09:10:08;;;;;;;6.47;2.95;;;44.30;86.50;;;;;;5029654;28;20040;-74
2023/07/07 09:13:28;;;;;;;11.95;3.08;;;45.00;84.10;;;;;;5016671;28;20041;-74
2023/07/07 09:16:34;;;;;;;5.93;3.22;;;45.80;83.30;;;;;;5031188;28;20040;-74
2023/07/07 09:19:42;;;;;;;5.63;3.35;;;45.00;81.80;;;;;;5034653;28;20124;-74
2023/07/07 09:22:49;;;;;;;5.53;3.00;;;43.20;83.20;;;;;;5032627;28;20503;-74
2023/07/07 09:25:56;;;;;;;4.18;2.83;;;44.00;82.10;;;;;;5029926;28;20059;-75
2023/07/07 09:29:07;;;;;;;7.75;2.75;;;44.50;81.30;;;;;;5032939;28;20484;-75
2023/07/07 09:32:13;;;;;;;5.25;2.83;;;46.00;80.10;;;;;;5031308;28;20048;-75
2023/07/07 09:35:19;;;;;;;5.30;2.95;;;46.50;78.90;;;;;;5020288;28;20064;-75
2023/07/07 09:38:51;;;;;;;5.35;2.58;;;47.40;76.60;;;;;;5031170;28;20044;-75
2023/07/07 09:42:21;;;;;;;4.60;2.70;;;45.30;76.10;;;;;;5031028;28;20040;-75
2023/07/07 09:45:54;;;;;;;5.55;2.80;;;45.50;79.00;;;;;;5008387;28;20112;-74
2023/07/07 09:49:05;;;;;;;4.25;2.95;;;46.30;76.80;;;;;;5013577;28;20045;-74
2023/07/07 09:52:24;;;;;;;5.03;3.10;;;46.90;75.80;;;;;;5030858;28;20053;-74
2023/07/07 09:55:33;;;;;;;3.83;2.83;;;42.90;73.80;;;;;;5022073;28;20056;-74
2023/07/07 09:58:50;;;;;;;5.40;3.20;;;41.80;77.90;;;;;;5026832;28;20044;-74
2023/07/07 10:01:55;;;;;;;8.55;3.45;;;42.40;76.60;;;;;;5019399;28;20044;-73
2023/07/07 10:05:06;;;;;;;5.25;3.15;;;40.80;79.30;;;;;;5033227;28;20037;-74
2023/07/07 10:08:13;;;;;;;3.90;2.67;;;43.30;79.10;;;;;;5014787;28;20049;-77
2023/07/07 10:11:22;;;;;;;4.18;2.63;;;45.20;77.50;;;;;;5023651;28;20048;-73
2023/07/07 10:14:29;;;;;;;5.00;2.80;;;45.30;78.40;;;;;;5030337;28;20041;-75
2023/07/07 10:17:53;;;;;;;6.65;2.80;;;45.00;76.90;;;;;;5029433;28;20052;-73
2023/07/07 10:21:01;;;;;;;8.93;2.95;;;45.40;75.30;;;;;;5028292;28;20044;-74
2023/07/07 10:24:05;;;;;;;6.00;2.92;;;46.40;76.20;;;;;;5033014;28;20032;-76
2023/07/07 10:27:17;;;;;;;5.90;3.03;;;46.50;74.80;;;;;;5020153;28;20049;-74
2023/07/07 10:30:22;;;;;;;5.22;2.88;;;46.30;73.80;;;;;;5034260;28;20045;-74
2023/07/07 10:33:26;;;;;;;5.90;3.50;;;45.20;74.30;;;;;;5031145;28;20044;-73
2023/07/07 10:36:32;;;;;;;3.95;3.08;;;40.20;76.90;;;;;;5027397;28;20040;-74
2023/07/07 10:39:38;;;;;;;7.40;3.10;;;38.90;80.70;;;;;;5027794;28;20041;-74
2023/07/07 10:42:43;;;;;;;7.65;3.20;;;40.60;79.90;;;;;;5027820;28;20036;-72
2023/07/07 10:45:48;;;;;;;5.03;3.40;;;40.70;78.80;;;;;;5012721;28;20048;-74
2023/07/07 10:48:56;;;;;;;6.20;3.10;;;42.60;76.60;;;;;;5024798;28;20057;-74
2023/07/07 10:52:27;;;;;;;13.13;3.25;;;44.40;76.80;;;;;;5032948;28;20053;-73
2023/07/07 10:55:57;;;;;;;5.93;2.78;;;43.00;78.20;;;;;;5026894;28;20499;-74
2023/07/07 10:59:10;;;;;;;;;;;44.80;76.70;;;;;;5026565;28;20045;-74
2023/07/07 11:02:45;;;;;;;4.07;2.90;;;45.60;74.50;;;;;;5028783;28;20276;-74
2023/07/07 11:06:18;;;;;;;6.68;2.85;;;46.40;73.00;;;;;;5018341;28;20052;-73
2023/07/07 11:09:40;;;;;;;9.07;2.80;;;46.80;72.80;;;;;;5033266;28;20044;-73
2023/07/07 11:13:07;;;;;;;5.55;3.28;;;46.40;72.50;;;;;;5024719;28;20044;-74
2023/07/07 11:16:26;;;;;;;8.63;3.13;;;46.10;72.90;;;;;;5032885;28;20507;-73
2023/07/07 11:19:52;;;;;;;5.78;3.28;;;40.50;78.10;;;;;;5029446;28;20423;-75
2023/07/07 11:23:07;;;;;;;9.55;3.40;;;40.90;77.90;;;;;;5028680;28;20044;-74
2023/07/07 11:26:22;;;;;;;7.05;3.60;;;41.90;76.70;;;;;;5025301;28;20503;-77
2023/07/07 11:29:48;;;;;;;6.28;3.22;;;41.40;74.10;;;;;;5029292;28;20048;-73
2023/07/07 11:33:24;;;;;;;9.38;3.28;;;42.40;75.70;;;;;;5036576;28;20044;-73
2023/07/07 11:37:18;;;;;;;9.00;3.88;;;43.20;73.90;;;;;;5030665;28;20495;-74
2023/07/07 11:40:52;;;;;;;4.88;3.42;;;42.10;76.50;;;;;;5001240;28;20043;-74
2023/07/07 11:44:12;;;;;;;5.07;3.65;;;40.00;76.80;;;;;;5026699;28;20384;-73
2023/07/07 11:47:35;;;;;;;6.28;3.95;;;37.00;79.70;;;;;;5029501;28;20052;-73
2023/07/07 11:50:46;;;;;;;7.07;3.60;;;38.10;80.30;;;;;;5028900;28;20048;-74
2023/07/07 11:54:35;;;;;;;5.47;3.50;;;39.90;80.10;;;;;;5033568;28;20388;-74
2023/07/07 11:58:25;;;;;;;9.88;3.55;;;37.30;81.20;;;;;;5027525;28;20397;-73
2023/07/07 12:01:39;;;;;;;6.78;3.90;;;37.50;82.60;;;;;;5027419;28;20059;-75
2023/07/07 12:04:44;;;;;;;6.20;3.30;;;38.00;82.40;;;;;;5030376;28;20053;-76
2023/07/07 12:07:53;;;;;;;7.63;4.53;;;39.00;81.20;;;;;;5014477;28;20044;-75
2023/07/07 12:10:59;;;;;;;7.65;3.92;;;39.20;80.20;;;;;;5022966;28;20049;-75
2023/07/07 12:14:19;;;;;;;7.40;3.28;;;39.40;79.90;;;;;;5035626;28;20052;-75
2023/07/07 12:17:29;;;;;;;7.22;3.50;;;39.80;80.40;;;;;;5026680;28;20040;-75
2023/07/07 12:20:39;;;;;;;6.68;4.00;;;40.10;80.30;;;;;;5030638;28;20045;-74
2023/07/07 12:23:59;;;;;;;6.30;3.88;;;40.20;79.30;;;;;;5037790;28;20049;-74
2023/07/07 12:27:11;;;;;;;6.95;3.40;;;40.20;79.70;;;;;;5025682;28;20057;-74
2023/07/07 12:30:36;;;;;;;5.80;4.03;;;39.80;81.00;;;;;;5029095;28;20400;-75
2023/07/07 12:33:41;;;;;;;9.23;4.28;;;38.70;81.50;;;;;;5033264;28;20044;-75
2023/07/07 12:36:46;;;;;;;5.78;3.72;;;37.50;81.40;;;;;;5024717;28;20048;-75
2023/07/07 12:40:00;;;;;;;10.15;3.80;;;37.30;81.00;;;;;;5030827;28;20045;-75
2023/07/07 12:43:23;;;;;;;6.03;3.40;;;37.10;83.90;;;;;;5032043;28;20384;-75
2023/07/07 12:46:31;;;;;;;7.68;3.90;;;37.20;82.90;;;;;;5023634;28;20056;-75
2023/07/07 12:49:38;;;;;;;5.03;3.60;;;37.60;82.40;;;;;;5027582;28;20060;-75
2023/07/07 12:52:44;;;;;;;9.05;3.60;;;38.10;80.60;;;;;;5029400;28;20060;-76
2023/07/07 12:56:00;;;;;;;9.38;3.95;;;38.00;82.40;;;;;;5033749;28;20049;-76
2023/07/07 12:59:33;;;;;;;7.65;4.13;;;35.20;85.90;;;;;;5029755;28;20520;-74
2023/07/07 13:02:59;;;;;;;8.55;3.92;;;34.90;84.70;;;;;;5024675;28;20057;-75
2023/07/07 13:06:34;;;;;;;6.95;3.75;;;35.60;89.00;;;;;;5025626;28;20032;-76
2023/07/07 13:09:50;;;;;;;9.15;4.10;;;35.60;86.70;;;;;;5032153;28;20040;-75
2023/07/07 13:13:04;;;;;;;6.85;3.88;;;35.40;85.00;;;;;;5032531;28;20065;-76
2023/07/07 13:16:12;;;;;;;9.43;4.35;;;34.70;84.70;;;;;;5029022;28;20057;-75
2023/07/07 13:19:17;;;;;;;5.57;3.55;;;35.40;84.40;;;;;;5042461;28;20048;-76
2023/07/07 13:22:29;;;;;;;7.05;3.67;;;35.60;82.80;;;;;;5026119;28;20052;-75
2023/07/07 13:25:35;;;;;;;6.47;3.50;;;35.90;83.90;;;;;;5036599;28;20390;-75
2023/07/07 13:28:40;;;;;;;5.22;3.25;;;35.90;82.80;;;;;;5034501;28;20052;-75
2023/07/07 13:31:44;;;;;;;5.05;3.80;;;36.70;82.90;;;;;;5039989;28;20056;-75
2023/07/07 13:34:48;;;;;;;5.32;3.40;;;36.60;83.50;;;;;;5031651;28;20044;-75
2023/07/07 13:38:05;;;;;;;6.03;3.80;;;36.70;83.30;;;;;;5025595;28;20044;-75
2023/07/07 13:41:13;;;;;;;8.25;3.83;;;36.60;83.60;;;;;;5030920;28;20395;-75
2023/07/07 13:44:19;;;;;;;10.18;3.72;;;36.80;85.40;;;;;;5026917;28;20048;-76
2023/07/07 13:47:25;;;;;;;7.85;4.05;;;36.70;83.60;;;;;;5008196;28;20044;-75
2023/07/07 13:50:30;;;;;;;8.95;3.75;;;35.80;85.50;;;;;;5032149;28;20060;-75
2023/07/07 13:53:35;;;;;;;5.45;3.83;;;35.00;85.10;;;;;;5048106;28;20052;-75
2023/07/07 13:56:43;;;;;;;8.73;4.28;;;33.40;86.80;;;;;;5030063;28;20064;-76
2023/07/07 13:59:48;;;;;;;7.35;3.83;;;33.70;89.40;;;;;;5032271;28;20049;-76
2023/07/07 14:02:52;;;;;;;9.02;4.13;;;33.70;86.80;;;;;;5026988;28;20032;-74
2023/07/07 14:06:12;;;;;;;7.65;3.75;;;33.30;87.60;;;;;;5031474;28;20384;-73
2023/07/07 14:09:37;;;;;;;10.25;4.15;;;34.10;86.60;;;;;;5024120;28;20053;-75
2023/07/07 14:12:42;;;;;;;8.18;3.90;;;35.30;86.40;;;;;;5027128;28;20072;-75
2023/07/07 14:15:57;;;;;;;5.68;3.55;;;35.20;84.40;;;;;;5031835;28;20068;-73
2023/07/07 14:19:22;;;;;;;6.45;3.47;;;34.20;85.30;;;;;;5029094;28;20784;-77
2023/07/07 14:22:30;;;;;;;8.75;3.42;;;34.60;87.10;;;;;;5020543;28;20040;-75
2023/07/07 14:25:41;;;;;;;8.70;3.90;;;33.20;87.10;;;;;;5031166;28;20531;-73
2023/07/07 14:28:46;;;;;;;6.43;3.85;;;33.30;85.70;;;;;;5025066;28;20049;-72
2023/07/07 14:31:51;;;;;;;5.63;3.47;;;33.70;85.70;;;;;;5036794;28;20517;-77
2023/07/07 14:34:59;;;;;;;6.55;3.28;;;33.80;83.40;;;;;;5021957;28;20068;-72
2023/07/07 14:38:22;;;;;;;5.80;3.30;;;33.90;80.50;;;;;;5028857;28;20510;-75
2023/07/07 14:41:33;;;;;;;7.50;3.13;;;32.80;83.00;;;;;;5023361;28;20491;-75
2023/07/07 14:44:48;;;;;;;5.90;3.17;;;33.40;81.70;;;;;;5041165;28;20040;-75
2023/07/07 14:47:53;;;;;;;6.63;3.50;;;34.00;84.10;;;;;;5029859;28;20048;-75
2023/07/07 14:51:09;;;;;;;6.55;2.70;;;34.20;84.00;;;;;;5031791;28;20052;-76
2023/07/07 14:54:18;;;;;;;6.82;3.42;;;33.70;81.30;;;;;;5039958;28;20048;-74
2023/07/07 14:57:22;;;;;;;10.00;3.55;;;33.30;82.90;;;;;;5041187;28;20056;-76
2023/07/07 15:00:40;;;;;;;7.72;3.50;;;33.60;80.90;;;;;;5037089;28;20040;-74
2023/07/07 15:03:47;;;;;;;6.15;3.30;;;34.00;80.30;;;;;;5013824;28;20044;-76
2023/07/07 15:06:52;;;;;;;6.65;2.97;;;33.50;79.70;;;;;;5026902;28;20053;-75
2023/07/07 15:09:59;;;;;;;9.57;3.58;;;33.40;78.80;;;;;;5046673;28;20048;-76
2023/07/07 15:13:03;;;;;;;8.13;3.38;;;33.70;80.70;;;;;;5025297;28;20053;-75
2023/07/07 15:16:12;;;;;;;5.38;3.08;;;33.80;81.80;;;;;;5028485;28;20056;-75
2023/07/07 15:19:22;;;;;;;5.15;2.97;;;33.30;79.80;;;;;;5023029;28;20052;-74
2023/07/07 15:22:26;;;;;;;10.70;3.67;;;33.50;80.20;;;;;;5025117;28;20040;-75
2023/07/07 15:25:30;;;;;;;5.10;3.08;;;33.80;80.80;;;;;;5024658;28;20045;-75
2023/07/07 15:28:34;;;;;;;6.63;2.80;;;34.00;82.50;;;;;;5029770;28;20044;-76
2023/07/07 15:31:40;;;;;;;4.47;2.33;;;33.90;83.90;;;;;;5004922;28;20404;-77
2023/07/07 15:34:45;;;;;;;8.50;2.97;;;33.80;81.60;;;;;;5011152;28;20044;-74
2023/07/07 15:37:49;;;;;;;4.93;2.70;;;33.20;84.70;;;;;;5031947;28;20503;-75
2023/07/07 15:40:53;;;;;;;5.25;2.40;;;32.60;83.90;;;;;;5031426;28;20044;-76
2023/07/07 15:43:57;;;;;;;4.78;2.55;;;32.70;86.40;;;;;;5033076;28;20040;-75
2023/07/07 15:47:02;;;;;;;4.57;3.03;;;32.40;86.30;;;;;;5031058;28;20032;-75
2023/07/07 15:50:15;;;;;;;5.72;2.85;;;32.10;88.20;;;;;;5030922;28;20045;-76
2023/07/07 15:53:19;;;;;;;5.32;3.05;;;31.90;86.70;;;;;;5030518;28;20044;-75
2023/07/07 15:56:27;;;;;;;7.60;2.70;;;31.30;86.70;;;;;;5030813;28;20044;-74
2023/07/07 15:59:31;;;;;;;6.97;2.55;;;31.20;86.80;;;;;;5030468;28;20503;-75
2023/07/07 16:02:35;;;;;;;4.85;2.58;;;31.30;86.00;;;;;;5030595;28;20045;-75
2023/07/07 16:05:39;;;;;;;5.38;2.58;;;31.50;85.30;;;;;;5030461;28;20041;-75
2023/07/07 16:08:44;;;;;;;3.35;2.42;;;31.80;86.30;;;;;;5025704;28;20052;-75
2023/07/07 16:11:48;;;;;;;4.82;3.03;;;32.00;86.80;;;;;;5030383;28;20052;-75
2023/07/07 16:14:52;;;;;;;3.47;2.40;;;32.10;85.50;;;;;;5033483;28;20045;-76
2023/07/07 16:17:56;;;;;;;4.85;2.70;;;32.40;86.40;;;;;;5034642;28;20041;-76
2023/07/07 16:21:00;;;;;;;6.43;2.75;;;32.50;82.50;;;;;;5034395;28;20396;-76